createdAt,value
2022-11-18T00:04:56.708Z,12.67
2022-11-18T00:09:59.581Z,13.30
2022-11-18T00:15:03.992Z,13.20
2022-11-18T00:20:07.752Z,13.50
2022-11-18T00:25:11.045Z,14.63
2022-11-18T00:30:15.327Z,14.37
2022-11-18T00:35:18.196Z,15.07
2022-11-18T00:40:21.053Z,13.70
2022-11-18T00:45:25.306Z,14.00
2022-11-18T00:50:28.204Z,14.13
2022-11-18T00:55:31.820Z,13.67
2022-11-18T01:00:36.133Z,13.63
2022-11-18T01:05:39.390Z,14.47
2022-11-18T01:10:42.545Z,12.90
2022-11-18T01:15:48.579Z,13.90
2022-11-18T01:20:51.638Z,14.50
2022-11-18T01:25:54.651Z,14.80
2022-11-18T01:31:04.757Z,15.40
2022-11-18T01:36:16.758Z,16.17
2022-11-18T01:41:21.336Z,15.47
2022-11-18T01:46:27.291Z,14.77
2022-11-18T01:51:34.665Z,15.33
2022-11-18T01:56:42.723Z,16.40
2022-11-18T02:01:47.484Z,14.93
2022-11-18T02:06:50.976Z,15.10
2022-11-18T02:11:54.930Z,14.00
2022-11-18T02:17:11.078Z,13.87
2022-11-18T02:22:29.729Z,11.93
2022-11-18T02:27:58.466Z,12.63
2022-11-18T02:33:08.391Z,11.97
2022-11-18T02:38:16.758Z,11.90
2022-11-18T02:43:25.712Z,13.33
2022-11-18T02:48:33.793Z,13.83
2022-11-18T02:53:39.572Z,13.30
2022-11-18T02:58:42.427Z,13.20
2022-11-18T03:03:46.739Z,12.60
2022-11-18T03:08:56.648Z,13.60
2022-11-18T03:14:10.331Z,14.30
2022-11-18T03:19:20.803Z,13.80
2022-11-18T03:24:30.633Z,13.43
2022-11-18T03:29:37.129Z,12.97
2022-11-18T03:34:46.855Z,10.93
2022-11-18T03:39:53.748Z,10.60
2022-11-18T03:45:01.692Z,10.07
2022-11-18T03:50:13.821Z,9.50
2022-11-18T03:55:20.706Z,9.93
2022-11-18T04:00:24.697Z,10.60
2022-11-18T04:05:33.425Z,10.50
2022-11-18T04:10:43.079Z,10.60
2022-11-18T04:15:46.063Z,11.70
2022-11-18T04:20:50.498Z,11.60
2022-11-18T04:25:53.420Z,11.57
2022-11-18T04:30:56.322Z,12.10
2022-11-18T04:36:00.548Z,13.27
2022-11-18T04:41:03.413Z,13.00
2022-11-18T04:46:06.497Z,12.90
2022-11-18T04:51:10.797Z,13.33
2022-11-18T04:56:13.807Z,12.00
2022-11-18T05:01:16.801Z,12.73
2022-11-18T05:06:21.165Z,13.20
2022-11-18T05:11:41.526Z,11.63
2022-11-18T05:16:44.695Z,12.60
2022-11-18T05:21:48.997Z,13.03
2022-11-18T05:26:52.738Z,12.93
2022-11-18T05:31:55.653Z,15.27
2022-11-18T05:36:59.910Z,18.50
2022-11-18T05:42:20.618Z,18.03
2022-11-18T05:47:24.954Z,19.20
2022-11-18T05:52:29.492Z,20.83
2022-11-18T05:57:32.372Z,17.40
2022-11-18T06:02:35.431Z,18.30
2022-11-18T06:07:42.847Z,17.33
2022-11-18T06:12:48.451Z,16.23
2022-11-18T06:17:56.324Z,16.30
2022-11-18T06:23:01.858Z,17.43
2022-11-18T06:28:05.138Z,18.43
2022-11-18T06:33:08.801Z,18.13
2022-11-18T06:38:13.272Z,16.83
2022-11-18T06:43:33.518Z,16.83
2022-11-18T06:48:36.424Z,17.43
2022-11-18T06:53:40.922Z,15.83
2022-11-18T06:58:43.800Z,15.13
2022-11-18T07:03:47.824Z,15.90
2022-11-18T07:08:52.875Z,14.83
2022-11-18T07:13:56.012Z,17.20
2022-11-18T07:18:59.024Z,15.40
2022-11-18T07:24:07.940Z,15.00
2022-11-18T07:29:11.674Z,14.60
2022-11-18T07:34:14.699Z,14.83
2022-11-18T07:39:19.181Z,12.83
2022-11-18T07:44:22.382Z,13.50
2022-11-18T07:49:25.319Z,14.47
2022-11-18T07:54:29.595Z,13.90
2022-11-18T07:59:32.468Z,13.43
2022-11-18T08:04:37.883Z,13.03
2022-11-18T08:09:42.227Z,11.30
2022-11-18T08:14:45.106Z,14.30
2022-11-18T08:19:47.955Z,13.10
2022-11-18T08:24:52.213Z,13.67
2022-11-18T08:29:55.102Z,13.43
2022-11-18T08:34:57.974Z,11.97
2022-11-18T08:40:02.278Z,13.33
2022-11-18T08:45:08.342Z,10.60
2022-11-18T08:50:12.626Z,13.53
2022-11-18T08:55:17.202Z,12.00
2022-11-18T09:00:20.987Z,13.20
2022-11-18T09:05:23.902Z,14.43
2022-11-18T09:10:28.635Z,13.50
2022-11-18T09:15:31.918Z,14.10
2022-11-18T09:20:34.795Z,15.30
2022-11-18T09:25:39.181Z,14.40
2022-11-18T09:30:42.195Z,16.63
2022-11-18T09:35:45.582Z,16.50
2022-11-18T09:41:05.231Z,17.20
2022-11-18T09:46:26.419Z,18.20
2022-11-18T09:51:33.771Z,17.60
2022-11-18T09:56:38.106Z,16.83
2022-11-18T10:01:41.118Z,16.00
2022-11-18T10:06:45.573Z,17.20
2022-11-18T10:12:03.563Z,17.87
2022-11-18T10:17:17.444Z,17.73
2022-11-18T10:22:24.789Z,18.40
2022-11-18T10:27:39.341Z,18.23
2022-11-18T10:32:55.577Z,19.77
2022-11-18T10:38:08.617Z,18.97
2022-11-18T10:43:14.476Z,17.00
2022-11-18T10:48:20.165Z,18.27
2022-11-18T10:53:34.019Z,18.57
2022-11-18T10:58:42.705Z,18.90
2022-11-18T11:03:57.909Z,16.43
2022-11-18T11:09:07.404Z,11.40
2022-11-18T11:14:20.838Z,11.60
2022-11-18T11:19:26.555Z,10.13
2022-11-18T11:24:29.475Z,9.70
2022-11-18T11:29:52.283Z,10.97
2022-11-18T11:35:03.906Z,11.90
2022-11-18T11:40:34.744Z,11.80
2022-11-18T11:45:48.474Z,13.40
2022-11-18T11:51:03.072Z,15.67
2022-11-18T11:56:23.551Z,14.30
2022-11-18T12:01:36.545Z,12.60
2022-11-18T12:06:42.631Z,12.00
2022-11-18T12:11:52.226Z,14.17
2022-11-18T12:17:07.998Z,16.17
2022-11-18T12:22:10.912Z,16.20
2022-11-18T12:27:16.156Z,20.70
2022-11-18T12:32:43.318Z,18.23
2022-11-18T12:37:59.693Z,19.50
2022-11-18T12:43:20.686Z,19.43
2022-11-18T12:48:48.599Z,18.77
2022-11-18T12:53:52.931Z,20.40
2022-11-18T12:58:57.021Z,19.77
2022-11-18T13:04:09.673Z,19.83
2022-11-18T13:09:17.979Z,21.00
2022-11-18T13:14:42.532Z,21.77
2022-11-18T13:19:57.775Z,21.40
2022-11-18T13:25:00.627Z,21.60
2022-11-18T13:30:06.000Z,18.23
2022-11-18T13:35:14.787Z,21.33
2022-11-18T13:40:21.200Z,20.40
2022-11-18T13:45:27.831Z,20.00
2022-11-18T13:50:36.432Z,20.97
2022-11-18T13:55:41.475Z,21.30
2022-11-18T14:00:44.685Z,19.53
2022-11-18T14:05:55.940Z,21.53
2022-11-18T14:10:59.938Z,24.17
2022-11-18T14:16:05.007Z,24.90
2022-11-18T14:21:13.739Z,24.50
2022-11-18T14:26:28.328Z,23.17
2022-11-18T14:31:32.871Z,24.70
2022-11-18T14:36:37.132Z,24.10
2022-11-18T14:41:48.775Z,23.33
2022-11-18T14:46:55.297Z,22.93
2022-11-18T14:52:02.535Z,24.70
2022-11-18T14:57:06.613Z,24.50
2022-11-18T15:02:15.579Z,24.40
2022-11-18T15:07:23.800Z,40.33
2022-11-18T15:12:27.415Z,38.10
2022-11-18T15:17:30.796Z,25.20
2022-11-18T15:22:35.526Z,32.50
2022-11-18T15:27:38.795Z,31.27
2022-11-18T15:32:41.669Z,27.50
2022-11-18T15:37:45.919Z,23.17
2022-11-18T15:42:51.992Z,25.40
2022-11-18T15:47:55.437Z,24.17
2022-11-18T15:52:59.840Z,23.80
2022-11-18T15:58:02.738Z,25.90
2022-11-18T16:03:05.659Z,26.43
2022-11-18T16:08:09.955Z,24.00
2022-11-18T16:13:12.884Z,26.03
2022-11-18T16:18:17.931Z,25.50
2022-11-18T16:23:22.215Z,26.60
2022-11-18T16:28:25.067Z,25.30
2022-11-18T16:33:27.964Z,23.90
2022-11-18T16:38:32.191Z,25.53
2022-11-18T16:43:35.098Z,25.03
2022-11-18T16:48:38.083Z,24.60
2022-11-18T16:53:42.331Z,24.67
2022-11-18T16:58:45.242Z,25.97
2022-11-18T17:03:48.503Z,25.80
2022-11-18T17:08:52.819Z,25.87
2022-11-18T17:13:58.276Z,24.50
2022-11-18T17:19:03.784Z,21.23
2022-11-18T17:24:13.952Z,21.90
2022-11-18T17:29:17.424Z,21.40
2022-11-18T17:34:21.208Z,22.70
2022-11-18T17:39:25.753Z,22.10
2022-11-18T17:44:30.079Z,19.77
2022-11-18T17:49:33.334Z,18.47
2022-11-18T17:54:37.730Z,15.93
2022-11-18T17:59:40.613Z,16.70
2022-11-18T18:04:43.463Z,18.63
2022-11-18T18:09:47.863Z,19.33
2022-11-18T18:14:50.866Z,18.53
2022-11-18T18:19:53.737Z,19.00
2022-11-18T18:24:58.168Z,14.23
2022-11-18T18:30:01.136Z,14.20
2022-11-18T18:35:04.287Z,12.17
2022-11-18T18:40:09.916Z,12.20
2022-11-18T18:45:30.311Z,14.33
2022-11-18T18:50:33.579Z,11.40
2022-11-18T18:55:42.004Z,12.33
2022-11-18T19:00:47.778Z,12.13
2022-11-18T19:11:30.208Z,13.47
2022-11-18T19:16:33.313Z,11.27
2022-11-18T19:21:36.623Z,11.50
2022-11-18T19:26:41.159Z,10.23
2022-11-18T19:31:44.107Z,9.20
2022-11-18T19:36:46.982Z,9.53
2022-11-18T19:41:51.271Z,10.00
2022-11-18T19:46:54.232Z,9.97
2022-11-18T19:51:57.173Z,10.40
2022-11-18T19:57:03.834Z,8.90
2022-11-18T20:02:07.489Z,9.27
2022-11-18T20:07:10.372Z,8.77
2022-11-18T20:12:14.697Z,11.90
2022-11-18T20:17:17.562Z,11.50
2022-11-18T20:22:20.441Z,11.10
2022-11-18T20:27:24.719Z,12.67
2022-11-18T20:32:27.660Z,11.07
2022-11-18T20:37:30.607Z,9.40
2022-11-18T20:42:52.988Z,9.13
2022-11-18T20:47:56.247Z,12.10
2022-11-18T20:52:59.216Z,9.27
2022-11-18T20:58:03.633Z,13.10
2022-11-18T21:03:07.106Z,21.33
2022-11-18T21:08:10.987Z,9.43
2022-11-18T21:13:32.800Z,10.60
2022-11-18T21:18:35.708Z,9.10
2022-11-18T21:23:38.567Z,9.50
2022-11-18T21:28:42.888Z,8.30
2022-11-18T21:33:45.800Z,9.23
2022-11-18T21:38:49.068Z,9.30
2022-11-18T21:44:08.706Z,9.40
2022-11-18T21:49:11.670Z,10.77
2022-11-18T21:54:15.994Z,8.50
2022-11-18T21:59:22.337Z,9.10
2022-11-18T22:04:42.905Z,10.23
2022-11-18T22:09:45.832Z,10.97
2022-11-18T22:14:51.226Z,10.60
2022-11-18T22:19:54.176Z,10.37
2022-11-18T22:24:57.313Z,9.63
2022-11-18T22:30:01.574Z,11.97
2022-11-18T22:35:04.750Z,10.40
2022-11-18T22:40:09.212Z,9.33
2022-11-18T22:45:13.559Z,10.43
2022-11-18T22:50:17.078Z,11.23
2022-11-18T22:55:19.988Z,9.60
2022-11-18T23:00:24.412Z,10.20
2022-11-18T23:05:27.298Z,10.50
2022-11-18T23:10:31.555Z,9.87
2022-11-18T23:15:35.902Z,10.50
2022-11-18T23:20:38.933Z,9.90
2022-11-18T23:25:41.780Z,10.97
2022-11-18T23:30:46.126Z,10.30
2022-11-18T23:35:53.185Z,9.90
2022-11-18T23:40:56.927Z,10.47
2022-11-18T23:46:01.485Z,9.90
2022-11-18T23:51:06.331Z,9.37
2022-11-18T23:56:11.228Z,8.93
